createdAt,value
2023-03-28T00:00:30.876Z,8.79
2023-03-28T00:02:32.621Z,8.87
2023-03-28T00:04:34.751Z,8.59
2023-03-28T00:06:38.485Z,8.76
2023-03-28T00:08:40.758Z,8.87
2023-03-28T00:10:42.597Z,8.80
2023-03-28T00:12:44.303Z,8.83
2023-03-28T00:14:46.349Z,8.74
2023-03-28T00:16:48.224Z,8.81
2023-03-28T00:18:51.072Z,8.82
2023-03-28T00:20:53.728Z,8.83
2023-03-28T00:22:56.363Z,8.77
2023-03-28T00:25:01.092Z,8.87
2023-03-28T00:27:02.816Z,9.00
2023-03-28T00:29:06.969Z,8.90
2023-03-28T00:31:08.967Z,8.89
2023-03-28T00:33:11.590Z,8.86
2023-03-28T00:35:13.999Z,8.89
2023-03-28T00:37:17.486Z,8.82
2023-03-28T00:39:19.272Z,8.79
2023-03-28T00:41:22.551Z,8.57
2023-03-28T00:43:37.753Z,8.66
2023-03-28T00:45:39.738Z,8.70
2023-03-28T00:47:51.792Z,8.66
2023-03-28T00:50:14.668Z,8.67
2023-03-28T00:52:18.120Z,8.67
2023-03-28T00:54:21.063Z,8.60
2023-03-28T00:56:25.505Z,8.60
2023-03-28T00:58:32.059Z,8.52
2023-03-28T01:00:34.999Z,8.66
2023-03-28T01:02:36.984Z,8.67
2023-03-28T01:04:49.544Z,8.67
2023-03-28T01:06:57.264Z,8.74
2023-03-28T01:09:00.963Z,8.70
2023-03-28T01:11:03.442Z,8.70
2023-03-28T01:13:05.856Z,8.70
2023-03-28T01:15:09.035Z,8.74
2023-03-28T01:17:10.992Z,8.69
2023-03-28T01:19:22.066Z,8.75
2023-03-28T01:21:32.733Z,8.74
2023-03-28T01:24:12.624Z,8.70
2023-03-28T01:26:42.332Z,8.67
2023-03-28T01:29:04.900Z,8.84
2023-03-28T01:31:22.570Z,8.74
2023-03-28T01:33:42.792Z,8.66
2023-03-28T01:36:10.727Z,8.74
2023-03-28T01:38:41.681Z,8.70
2023-03-28T01:40:59.883Z,8.71
2023-03-28T01:43:35.609Z,8.80
2023-03-28T01:45:37.266Z,8.75
2023-03-28T01:48:02.035Z,8.66
2023-03-28T01:50:23.092Z,8.56
2023-03-28T01:52:34.010Z,8.67
2023-03-28T01:54:41.345Z,8.72
2023-03-28T01:56:47.314Z,8.81
2023-03-28T01:58:51.912Z,8.74
2023-03-28T02:01:02.635Z,8.86
2023-03-28T02:03:26.586Z,8.92
2023-03-28T02:05:32.551Z,8.86
2023-03-28T02:07:35.034Z,9.04
2023-03-28T02:09:38.922Z,8.91
2023-03-28T02:11:42.120Z,9.00
2023-03-28T02:13:47.306Z,8.95
2023-03-28T02:16:03.237Z,8.86
2023-03-28T02:18:10.318Z,8.80
2023-03-28T02:20:17.133Z,8.79
2023-03-28T02:22:47.966Z,8.91
2023-03-28T02:24:52.019Z,8.96
2023-03-28T02:26:55.129Z,9.01
2023-03-28T02:28:58.379Z,8.78
2023-03-28T02:31:01.731Z,8.80
2023-03-28T02:33:06.355Z,8.96
2023-03-28T02:35:09.221Z,8.99
2023-03-28T02:37:17.076Z,8.86
2023-03-28T02:39:26.332Z,8.92
2023-03-28T02:41:33.989Z,8.94
2023-03-28T02:43:52.576Z,9.03
2023-03-28T02:46:22.436Z,8.91
2023-03-28T02:48:51.424Z,8.82
2023-03-28T02:51:25.321Z,8.82
2023-03-28T02:53:51.678Z,8.92
2023-03-28T02:56:06.603Z,8.93
2023-03-28T02:58:21.334Z,9.02
2023-03-28T03:00:23.426Z,8.82
2023-03-28T03:02:25.230Z,8.88
2023-03-28T03:04:26.994Z,8.93
2023-03-28T03:06:28.686Z,8.92
2023-03-28T03:08:31.142Z,9.03
2023-03-28T03:10:32.936Z,8.90
2023-03-28T03:12:36.078Z,8.88
2023-03-28T03:14:39.062Z,8.91
2023-03-28T03:16:43.230Z,8.73
2023-03-28T03:18:44.977Z,8.80
2023-03-28T03:20:46.617Z,8.72
2023-03-28T03:22:48.339Z,8.81
2023-03-28T03:24:51.216Z,8.72
2023-03-28T03:26:53.188Z,8.73
2023-03-28T03:28:55.368Z,8.66
2023-03-28T03:30:57.163Z,8.67
2023-03-28T03:33:00.772Z,8.83
2023-03-28T03:35:02.873Z,8.85
2023-03-28T03:37:04.778Z,8.79
2023-03-28T03:39:06.537Z,8.76
2023-03-28T03:41:08.337Z,8.90
2023-03-28T03:43:10.038Z,8.79
2023-03-28T03:45:12.000Z,8.80
2023-03-28T03:47:13.907Z,8.93
2023-03-28T03:49:15.648Z,8.84
2023-03-28T03:51:18.026Z,8.99
2023-03-28T03:53:19.725Z,8.92
2023-03-28T03:55:21.416Z,8.91
2023-03-28T03:57:23.124Z,8.95
2023-03-28T03:59:24.926Z,8.93
2023-03-28T04:01:30.308Z,8.94
2023-03-28T04:03:33.960Z,8.84
2023-03-28T04:05:35.719Z,8.89
2023-03-28T04:07:37.532Z,8.87
2023-03-28T04:09:39.483Z,8.99
2023-03-28T04:11:41.236Z,8.89
2023-03-28T04:13:42.996Z,8.84
2023-03-28T04:15:54.078Z,8.93
2023-03-28T04:17:57.083Z,9.08
2023-03-28T04:19:58.818Z,8.90
2023-03-28T04:22:00.527Z,8.92
2023-03-28T04:24:02.658Z,9.08
2023-03-28T04:26:04.560Z,8.98
2023-03-28T04:28:06.184Z,8.94
2023-03-28T04:30:09.686Z,8.90
2023-03-28T04:32:13.028Z,9.02
2023-03-28T04:34:16.037Z,9.08
2023-03-28T04:36:18.471Z,9.09
2023-03-28T04:38:21.799Z,9.11
2023-03-28T04:40:25.046Z,9.19
2023-03-28T04:42:26.808Z,9.20
2023-03-28T04:44:29.653Z,9.16
2023-03-28T04:46:31.664Z,9.27
2023-03-28T04:48:33.425Z,9.12
2023-03-28T04:50:35.966Z,9.22
2023-03-28T04:52:37.927Z,9.20
2023-03-28T04:54:39.618Z,8.99
2023-03-28T04:56:41.607Z,8.94
2023-03-28T04:58:43.443Z,8.91
2023-03-28T05:00:48.377Z,8.70
2023-03-28T05:02:55.073Z,8.83
2023-03-28T05:04:56.789Z,8.84
2023-03-28T05:06:58.470Z,8.89
2023-03-28T05:09:01.026Z,8.87
2023-03-28T05:11:02.857Z,8.94
2023-03-28T05:13:05.101Z,8.95
2023-03-28T05:15:07.296Z,8.91
2023-03-28T05:17:09.055Z,8.72
2023-03-28T05:19:10.834Z,8.90
2023-03-28T05:21:12.555Z,9.01
2023-03-28T05:23:14.387Z,9.03
2023-03-28T05:25:16.472Z,8.82
2023-03-28T05:27:18.158Z,8.91
2023-03-28T05:29:19.832Z,8.93
2023-03-28T05:31:21.681Z,8.95
2023-03-28T05:33:23.427Z,8.96
2023-03-28T05:35:25.284Z,8.96
2023-03-28T05:37:28.676Z,8.91
2023-03-28T05:39:30.612Z,9.07
2023-03-28T05:41:32.284Z,8.98
2023-03-28T05:43:33.971Z,8.95
2023-03-28T05:45:35.991Z,8.99
2023-03-28T05:47:37.702Z,9.14
2023-03-28T05:49:39.394Z,8.94
2023-03-28T05:51:41.068Z,9.07
2023-03-28T05:53:43.712Z,8.94
2023-03-28T05:55:46.803Z,8.99
2023-03-28T05:57:48.684Z,8.94
2023-03-28T05:59:50.586Z,8.83
2023-03-28T06:01:52.871Z,8.81
2023-03-28T06:03:55.399Z,8.66
2023-03-28T06:05:57.375Z,8.64
2023-03-28T06:07:59.241Z,8.63
2023-03-28T06:10:01.894Z,8.57
2023-03-28T06:12:05.161Z,8.62
2023-03-28T06:14:07.499Z,8.50
2023-03-28T06:16:09.433Z,8.67
2023-03-28T06:18:11.369Z,8.57
2023-03-28T06:20:13.469Z,8.64
2023-03-28T06:22:15.344Z,8.56
2023-03-28T06:24:17.443Z,8.55
2023-03-28T06:26:19.675Z,8.50
2023-03-28T06:28:21.578Z,8.48
2023-03-28T06:30:23.290Z,8.59
2023-03-28T06:32:25.281Z,8.54
2023-03-28T06:34:27.331Z,8.65
2023-03-28T06:36:29.136Z,8.59
2023-03-28T06:38:31.170Z,8.50
2023-03-28T06:40:33.134Z,8.58
2023-03-28T06:42:34.854Z,8.59
2023-03-28T06:44:36.625Z,8.75
2023-03-28T06:46:39.122Z,8.61
2023-03-28T06:48:40.939Z,8.73
2023-03-28T06:50:50.178Z,8.68
2023-03-28T06:52:51.953Z,8.81
2023-03-28T06:54:53.662Z,8.79
2023-03-28T06:56:55.713Z,8.78
2023-03-28T06:58:57.389Z,8.61
2023-03-28T07:01:00.325Z,8.63
2023-03-28T07:03:02.425Z,8.68
2023-03-28T07:05:04.355Z,8.81
2023-03-28T07:07:20.266Z,8.91
2023-03-28T07:09:22.051Z,9.01
2023-03-28T07:11:23.919Z,8.95
2023-03-28T07:13:26.047Z,8.91
2023-03-28T07:15:27.763Z,9.00
2023-03-28T07:17:29.483Z,8.91
2023-03-28T07:19:31.344Z,8.99
2023-03-28T07:21:33.042Z,8.93
2023-03-28T07:23:35.463Z,9.04
2023-03-28T07:25:37.187Z,9.10
2023-03-28T07:27:39.061Z,9.24
2023-03-28T07:29:40.734Z,9.28
2023-03-28T07:31:42.848Z,9.40
2023-03-28T07:33:44.574Z,9.43
2023-03-28T07:35:51.191Z,9.31
2023-03-28T07:37:52.904Z,9.42
2023-03-28T07:39:56.682Z,9.43
2023-03-28T07:41:58.406Z,9.47
2023-03-28T07:44:00.483Z,9.37
2023-03-28T07:46:08.240Z,9.32
2023-03-28T07:48:10.129Z,9.35
2023-03-28T07:50:12.316Z,9.30
2023-03-28T07:52:14.578Z,9.42
2023-03-28T07:54:17.958Z,9.55
2023-03-28T07:56:22.574Z,9.58
2023-03-28T07:58:24.494Z,9.21
2023-03-28T08:00:27.718Z,9.26
2023-03-28T08:02:29.497Z,9.49
2023-03-28T08:04:31.501Z,9.51
2023-03-28T08:06:34.221Z,9.44
2023-03-28T08:08:36.669Z,9.51
2023-03-28T08:10:38.380Z,9.57
2023-03-28T08:12:40.083Z,9.58
2023-03-28T08:14:41.997Z,9.58
2023-03-28T08:16:45.421Z,9.66
2023-03-28T08:18:54.393Z,9.75
2023-03-28T08:21:03.432Z,9.51
2023-03-28T08:23:06.294Z,9.59
2023-03-28T08:25:09.480Z,9.44
2023-03-28T08:27:11.758Z,9.28
2023-03-28T08:29:13.586Z,9.52
2023-03-28T08:31:17.119Z,9.57
2023-03-28T08:33:19.130Z,9.57
2023-03-28T08:35:20.983Z,9.53
2023-03-28T08:37:22.697Z,9.71
2023-03-28T08:39:24.505Z,9.64
2023-03-28T08:41:41.167Z,9.66
2023-03-28T08:43:57.240Z,9.72
2023-03-28T08:46:01.407Z,9.80
2023-03-28T08:48:08.203Z,9.89
2023-03-28T08:50:23.927Z,9.84
2023-03-28T08:52:26.486Z,10.03
2023-03-28T08:54:44.847Z,9.97
2023-03-28T08:56:51.446Z,10.05
2023-03-28T08:59:11.289Z,10.04
2023-03-28T09:01:13.402Z,10.07
2023-03-28T09:03:20.022Z,9.90
2023-03-28T09:06:04.856Z,9.97
2023-03-28T09:08:20.080Z,10.11
2023-03-28T09:10:34.103Z,10.12
2023-03-28T09:12:52.354Z,9.93
2023-03-28T09:15:16.379Z,10.00
2023-03-28T09:17:27.387Z,9.81
2023-03-28T09:19:53.833Z,9.84
2023-03-28T09:22:14.724Z,9.89
2023-03-28T09:24:29.860Z,10.03
2023-03-28T09:26:38.907Z,10.04
2023-03-28T09:28:52.702Z,10.04
2023-03-28T09:30:57.617Z,10.13
2023-03-28T09:33:03.332Z,10.01
2023-03-28T09:35:17.029Z,9.98
2023-03-28T09:37:39.397Z,9.98
2023-03-28T09:39:49.559Z,10.10
2023-03-28T09:42:12.568Z,10.00
2023-03-28T09:44:16.967Z,10.01
2023-03-28T09:46:30.330Z,9.99
2023-03-28T09:48:36.572Z,9.86
2023-03-28T09:50:38.290Z,9.93
2023-03-28T09:52:40.548Z,9.90
2023-03-28T09:54:42.444Z,9.81
2023-03-28T09:56:45.745Z,9.86
2023-03-28T09:59:05.200Z,9.73
2023-03-28T10:01:30.666Z,9.82
2023-03-28T10:03:33.075Z,9.81
2023-03-28T10:05:37.042Z,9.83
2023-03-28T10:07:44.817Z,9.86
2023-03-28T10:09:51.139Z,9.84
2023-03-28T10:11:59.388Z,9.91
2023-03-28T10:14:01.796Z,9.66
2023-03-28T10:16:06.366Z,9.78
2023-03-28T10:18:08.428Z,9.77
2023-03-28T10:20:32.876Z,9.80
2023-03-28T10:22:37.702Z,9.77
2023-03-28T10:24:40.816Z,9.75
2023-03-28T10:26:42.676Z,9.65
2023-03-28T10:28:44.585Z,9.69
2023-03-28T10:30:53.831Z,9.58
2023-03-28T10:33:17.749Z,9.47
2023-03-28T10:35:26.601Z,9.53
2023-03-28T10:37:31.951Z,9.33
2023-03-28T10:39:33.806Z,9.43
2023-03-28T10:41:35.533Z,9.48
2023-03-28T10:43:42.225Z,9.39
2023-03-28T10:45:59.815Z,9.51
2023-03-28T10:48:08.070Z,9.49
2023-03-28T10:50:25.664Z,9.60
2023-03-28T10:52:30.241Z,9.65
2023-03-28T10:54:46.823Z,9.72
2023-03-28T10:57:09.012Z,9.52
2023-03-28T10:59:56.188Z,9.52
2023-03-28T11:02:12.886Z,9.71
2023-03-28T11:04:24.384Z,9.63
2023-03-28T11:07:18.216Z,9.46
2023-03-28T11:09:31.856Z,9.47
2023-03-28T11:11:59.266Z,9.26
2023-03-28T11:14:15.757Z,9.22
2023-03-28T11:16:44.228Z,9.22
2023-03-28T11:19:18.571Z,9.14
2023-03-28T11:21:41.049Z,9.36
2023-03-28T11:23:51.521Z,9.20
2023-03-28T11:26:20.879Z,9.26
2023-03-28T11:28:37.027Z,9.38
2023-03-28T11:30:42.693Z,9.16
2023-03-28T11:33:19.472Z,9.09
2023-03-28T11:35:32.787Z,9.06
2023-03-28T11:37:44.401Z,9.01
2023-03-28T11:40:03.605Z,9.21
2023-03-28T11:42:10.441Z,9.08
2023-03-28T11:44:31.770Z,9.22
2023-03-28T11:46:39.287Z,9.17
2023-03-28T11:49:01.245Z,9.18
2023-03-28T11:51:06.647Z,9.06
2023-03-28T11:53:16.660Z,9.01
2023-03-28T11:55:27.745Z,8.99
2023-03-28T11:57:35.835Z,9.10
2023-03-28T11:59:37.626Z,9.07
2023-03-28T12:01:49.758Z,8.85
2023-03-28T12:04:10.030Z,8.84
2023-03-28T12:06:27.152Z,8.83
2023-03-28T12:08:36.239Z,8.74
2023-03-28T12:10:38.300Z,8.88
2023-03-28T12:12:59.729Z,8.99
2023-03-28T12:15:18.156Z,9.10
2023-03-28T12:17:45.398Z,9.17
2023-03-28T12:19:48.692Z,9.22
2023-03-28T12:21:57.225Z,9.33
2023-03-28T12:23:59.658Z,9.28
2023-03-28T12:26:32.534Z,9.38
2023-03-28T12:28:43.581Z,9.35
2023-03-28T12:30:56.786Z,9.37
2023-03-28T12:33:24.990Z,9.53
2023-03-28T12:35:54.925Z,9.44
2023-03-28T12:38:32.410Z,9.57
2023-03-28T12:41:07.513Z,9.55
2023-03-28T12:43:14.999Z,9.48
2023-03-28T12:45:29.553Z,9.64
2023-03-28T12:47:37.702Z,9.63
2023-03-28T12:49:45.615Z,9.69
2023-03-28T12:51:52.186Z,9.84
2023-03-28T12:54:21.814Z,9.82
2023-03-28T12:56:23.694Z,9.88
2023-03-28T12:58:33.716Z,9.83
2023-03-28T13:00:57.034Z,9.55
2023-03-28T13:03:08.204Z,9.70
2023-03-28T13:05:32.082Z,9.64
2023-03-28T13:08:06.838Z,9.78
2023-03-28T13:10:50.976Z,9.77
2023-03-28T13:13:11.294Z,9.79
2023-03-28T13:15:12.953Z,9.74
2023-03-28T13:17:26.406Z,9.74
2023-03-28T13:19:46.631Z,9.81
2023-03-28T13:21:56.592Z,9.63
2023-03-28T13:23:58.304Z,9.51
2023-03-28T13:26:02.824Z,9.54
2023-03-28T13:28:11.217Z,9.79
2023-03-28T13:30:22.151Z,9.77
2023-03-28T13:32:24.922Z,9.87
2023-03-28T13:34:33.954Z,9.75
2023-03-28T13:36:36.117Z,9.89
2023-03-28T13:38:55.795Z,9.80
2023-03-28T13:41:06.437Z,10.03
2023-03-28T13:43:28.291Z,9.92
2023-03-28T13:45:30.122Z,9.94
2023-03-28T13:47:40.346Z,10.14
2023-03-28T13:49:49.835Z,10.18
2023-03-28T13:52:00.428Z,10.30
2023-03-28T13:54:02.215Z,10.31
2023-03-28T13:56:09.471Z,10.33
2023-03-28T13:58:13.431Z,10.44
2023-03-28T14:00:20.628Z,10.49
2023-03-28T14:02:46.174Z,10.40
2023-03-28T14:05:06.038Z,10.41
2023-03-28T14:07:13.331Z,10.53
2023-03-28T14:09:29.688Z,10.34
2023-03-28T14:11:41.841Z,10.22
2023-03-28T14:13:44.547Z,10.25
2023-03-28T14:16:00.196Z,10.19
2023-03-28T14:18:03.666Z,10.24
2023-03-28T14:20:07.627Z,10.23
2023-03-28T14:22:18.635Z,10.26
2023-03-28T14:24:26.923Z,10.34
2023-03-28T14:26:32.236Z,10.35
2023-03-28T14:28:34.410Z,10.32
2023-03-28T14:30:41.247Z,10.42
2023-03-28T14:32:57.456Z,10.29
2023-03-28T14:35:18.952Z,10.43
2023-03-28T14:37:22.804Z,10.32
2023-03-28T14:39:26.719Z,10.33
2023-03-28T14:41:32.538Z,10.19
2023-03-28T14:43:34.931Z,10.27
2023-03-28T14:45:52.896Z,10.37
2023-03-28T14:47:56.416Z,10.30
2023-03-28T14:50:00.771Z,10.47
2023-03-28T14:52:03.934Z,10.31
2023-03-28T14:54:05.916Z,10.26
2023-03-28T14:56:11.261Z,10.30
2023-03-28T14:58:14.023Z,10.18
2023-03-28T15:00:22.224Z,10.35
2023-03-28T15:02:34.018Z,10.38
2023-03-28T15:04:36.871Z,10.42
2023-03-28T15:06:39.552Z,10.40
2023-03-28T15:08:42.038Z,10.55
2023-03-28T15:10:51.077Z,10.50
2023-03-28T15:13:04.587Z,10.65
2023-03-28T15:15:07.610Z,10.58
2023-03-28T15:17:18.954Z,10.41
2023-03-28T15:19:27.218Z,10.54
2023-03-28T15:21:28.978Z,10.59
2023-03-28T15:23:49.345Z,10.43
2023-03-28T15:26:03.336Z,10.38
2023-03-28T15:28:10.622Z,10.22
2023-03-28T15:30:17.156Z,10.43
2023-03-28T15:32:20.666Z,10.50
2023-03-28T15:34:29.058Z,10.39
2023-03-28T15:36:32.565Z,10.25
2023-03-28T15:38:41.284Z,10.28
2023-03-28T15:40:48.993Z,10.15
2023-03-28T15:42:51.367Z,10.16
2023-03-28T15:44:58.968Z,10.01
2023-03-28T15:47:07.284Z,9.92
2023-03-28T15:49:11.428Z,9.89
2023-03-28T15:51:18.985Z,10.02
2023-03-28T15:53:22.373Z,10.08
2023-03-28T15:55:27.116Z,9.96
2023-03-28T15:57:30.670Z,9.94
2023-03-28T15:59:42.456Z,9.95
2023-03-28T16:01:44.541Z,10.13
2023-03-28T16:03:46.706Z,10.13
2023-03-28T16:06:01.798Z,10.21
2023-03-28T16:08:34.293Z,10.16
2023-03-28T16:10:37.752Z,10.24
2023-03-28T16:12:40.570Z,10.15
2023-03-28T16:14:47.089Z,10.21
2023-03-28T16:16:58.309Z,10.30
2023-03-28T16:19:03.450Z,10.26
2023-03-28T16:21:05.448Z,10.12
2023-03-28T16:23:08.107Z,10.26
2023-03-28T16:25:09.972Z,10.18
2023-03-28T16:27:11.786Z,10.03
2023-03-28T16:29:13.895Z,10.18
2023-03-28T16:31:15.893Z,10.29
2023-03-28T16:33:19.886Z,10.06
2023-03-28T16:35:22.806Z,10.07
2023-03-28T16:37:24.724Z,10.17
2023-03-28T16:39:26.708Z,10.33
2023-03-28T16:41:28.453Z,10.26
2023-03-28T16:43:30.432Z,10.36
2023-03-28T16:45:32.466Z,10.26
2023-03-28T16:47:34.128Z,10.38
2023-03-28T16:49:35.979Z,10.42
2023-03-28T16:51:38.169Z,10.34
2023-03-28T16:53:40.497Z,10.21
2023-03-28T16:55:50.882Z,10.18
2023-03-28T16:57:52.627Z,10.26
2023-03-28T16:59:54.411Z,10.15
2023-03-28T17:01:56.192Z,10.30
2023-03-28T17:03:58.152Z,10.35
2023-03-28T17:06:05.534Z,10.34
2023-03-28T17:08:07.453Z,10.21
2023-03-28T17:10:10.042Z,10.20
2023-03-28T17:12:11.806Z,10.16
2023-03-28T17:14:13.573Z,10.16
2023-03-28T17:16:15.394Z,10.18
2023-03-28T17:18:17.357Z,10.24
2023-03-28T17:20:19.747Z,10.29
2023-03-28T17:22:21.499Z,10.23
2023-03-28T17:24:24.087Z,10.42
2023-03-28T17:26:26.464Z,10.44
2023-03-28T17:28:29.314Z,10.33
2023-03-28T17:30:32.195Z,10.39
2023-03-28T17:32:34.427Z,10.43
2023-03-28T17:34:36.709Z,10.46
2023-03-28T17:36:38.413Z,10.26
2023-03-28T17:38:40.297Z,10.29
2023-03-28T17:40:49.131Z,10.31
2023-03-28T17:42:51.331Z,10.49
2023-03-28T17:44:54.691Z,10.24
2023-03-28T17:46:57.656Z,10.35
2023-03-28T17:48:59.514Z,10.33
2023-03-28T17:51:01.239Z,10.10
2023-03-28T17:53:03.228Z,10.22
2023-03-28T17:55:06.362Z,10.26
2023-03-28T17:57:08.442Z,10.13
2023-03-28T17:59:11.730Z,10.04
2023-03-28T18:01:16.806Z,10.27
2023-03-28T18:03:18.668Z,10.20
2023-03-28T18:05:22.455Z,9.97
2023-03-28T18:07:24.719Z,9.98
2023-03-28T18:09:27.524Z,10.14
2023-03-28T18:11:29.208Z,9.93
2023-03-28T18:13:31.432Z,10.08
2023-03-28T18:15:33.574Z,10.00
2023-03-28T18:17:35.416Z,9.89
2023-03-28T18:19:37.267Z,9.95
2023-03-28T18:21:39.027Z,9.74
2023-03-28T18:23:41.584Z,9.89
2023-03-28T18:25:56.593Z,10.07
2023-03-28T18:27:58.428Z,10.16
2023-03-28T18:30:08.139Z,10.19
2023-03-28T18:32:09.880Z,10.13
2023-03-28T18:34:11.983Z,10.09
2023-03-28T18:36:14.538Z,9.98
2023-03-28T18:38:16.416Z,9.97
2023-03-28T18:40:18.682Z,9.94
2023-03-28T18:42:20.385Z,10.09
2023-03-28T18:44:22.362Z,9.96
2023-03-28T18:46:29.837Z,9.94
2023-03-28T18:48:31.904Z,9.99
2023-03-28T18:50:33.892Z,10.07
2023-03-28T18:52:36.216Z,10.06
2023-03-28T18:54:38.542Z,10.11
2023-03-28T18:56:40.459Z,10.10
2023-03-28T18:58:42.211Z,10.12
2023-03-28T19:00:44.053Z,10.20
2023-03-28T19:02:47.951Z,10.12
2023-03-28T19:04:49.884Z,10.04
2023-03-28T19:06:52.587Z,10.02
2023-03-28T19:08:54.943Z,9.93
2023-03-28T19:10:59.205Z,10.17
2023-03-28T19:13:01.083Z,10.12
2023-03-28T19:15:04.585Z,10.11
2023-03-28T19:17:07.336Z,10.09
2023-03-28T19:19:09.041Z,9.95
2023-03-28T19:21:11.989Z,10.00
2023-03-28T19:23:14.241Z,10.11
2023-03-28T19:25:16.420Z,10.19
2023-03-28T19:27:18.153Z,10.25
2023-03-28T19:29:19.940Z,10.29
2023-03-28T19:31:25.663Z,10.16
2023-03-28T19:33:28.672Z,10.28
2023-03-28T19:35:30.529Z,10.35
2023-03-28T19:37:32.313Z,10.18
2023-03-28T19:39:33.949Z,10.17
2023-03-28T19:41:36.684Z,10.22
2023-03-28T19:43:38.454Z,10.10
2023-03-28T19:45:41.432Z,10.18
2023-03-28T19:47:43.147Z,10.18
2023-03-28T19:49:46.482Z,10.24
2023-03-28T19:51:48.417Z,10.26
2023-03-28T19:53:50.283Z,10.13
2023-03-28T19:55:58.885Z,10.20
2023-03-28T19:58:02.536Z,10.23
2023-03-28T20:00:06.592Z,10.05
2023-03-28T20:02:12.400Z,10.21
2023-03-28T20:04:14.727Z,10.13
2023-03-28T20:06:17.175Z,10.19
2023-03-28T20:08:19.190Z,10.33
2023-03-28T20:10:21.959Z,10.32
2023-03-28T20:12:24.058Z,10.25
2023-03-28T20:14:25.876Z,10.35
2023-03-28T20:16:27.675Z,10.27
2023-03-28T20:18:29.814Z,10.35
2023-03-28T20:20:32.017Z,10.41
2023-03-28T20:22:35.295Z,10.28
2023-03-28T20:24:37.527Z,10.39
2023-03-28T20:26:39.997Z,10.37
2023-03-28T20:28:41.950Z,10.32
2023-03-28T20:30:47.687Z,10.50
2023-03-28T20:32:51.032Z,10.43
2023-03-28T20:34:52.740Z,10.29
2023-03-28T20:36:56.828Z,10.35
2023-03-28T20:39:01.128Z,10.26
2023-03-28T20:41:03.161Z,10.23
2023-03-28T20:43:05.212Z,10.30
2023-03-28T20:45:09.154Z,10.27
2023-03-28T20:47:11.552Z,10.20
2023-03-28T20:49:13.736Z,10.23
2023-03-28T20:51:22.998Z,10.00
2023-03-28T20:53:25.237Z,10.08
2023-03-28T20:55:29.612Z,10.18
2023-03-28T20:57:31.939Z,10.05
2023-03-28T20:59:34.842Z,10.22
2023-03-28T21:01:46.019Z,10.24
2023-03-28T21:03:51.172Z,10.31
2023-03-28T21:05:53.242Z,10.32
2023-03-28T21:07:55.713Z,10.29
2023-03-28T21:09:59.616Z,10.24
2023-03-28T21:12:01.432Z,10.24
2023-03-28T21:14:04.587Z,10.41
2023-03-28T21:16:06.879Z,10.44
2023-03-28T21:18:09.747Z,10.48
2023-03-28T21:20:11.647Z,10.44
2023-03-28T21:22:13.447Z,10.38
2023-03-28T21:24:15.135Z,10.32
2023-03-28T21:26:18.841Z,10.35
2023-03-28T21:28:20.544Z,10.43
2023-03-28T21:30:22.212Z,10.52
2023-03-28T21:32:24.118Z,10.41
2023-03-28T21:34:30.828Z,10.47
2023-03-28T21:36:32.761Z,10.51
2023-03-28T21:38:35.647Z,10.49
2023-03-28T21:40:37.591Z,10.57
2023-03-28T21:42:39.248Z,10.58
2023-03-28T21:44:41.771Z,10.57
2023-03-28T21:46:43.803Z,10.47
2023-03-28T21:48:48.055Z,10.46
2023-03-28T21:50:53.856Z,10.60
2023-03-28T21:52:55.732Z,10.57
2023-03-28T21:54:57.406Z,10.52
2023-03-28T21:56:59.246Z,10.57
2023-03-28T21:59:01.064Z,10.64
2023-03-28T22:01:04.361Z,10.74
2023-03-28T22:03:06.960Z,10.82
2023-03-28T22:05:22.019Z,10.87
2023-03-28T22:07:30.283Z,10.72
2023-03-28T22:09:34.106Z,10.91
2023-03-28T22:11:35.807Z,10.94
2023-03-28T22:13:38.843Z,10.97
2023-03-28T22:15:50.428Z,10.99
2023-03-28T22:17:58.243Z,10.96
2023-03-28T22:20:02.289Z,10.95
2023-03-28T22:22:04.569Z,11.09
2023-03-28T22:24:13.481Z,11.11
2023-03-28T22:26:16.132Z,11.11
2023-03-28T22:28:19.102Z,11.12
2023-03-28T22:30:21.355Z,11.17
2023-03-28T22:32:23.988Z,11.14
2023-03-28T22:34:26.562Z,11.14
2023-03-28T22:36:28.909Z,11.23
2023-03-28T22:38:31.197Z,11.18
2023-03-28T22:40:33.470Z,11.21
2023-03-28T22:42:35.878Z,11.23
2023-03-28T22:44:46.325Z,11.15
2023-03-28T22:46:49.920Z,11.17
2023-03-28T22:48:58.765Z,11.06
2023-03-28T22:51:01.883Z,11.10
2023-03-28T22:53:04.685Z,11.10
2023-03-28T22:55:06.930Z,10.93
2023-03-28T22:57:08.786Z,11.02
2023-03-28T22:59:11.666Z,10.86
2023-03-28T23:01:13.425Z,10.84
2023-03-28T23:03:16.033Z,10.92
2023-03-28T23:05:18.187Z,10.90
2023-03-28T23:07:20.965Z,10.92
2023-03-28T23:09:25.936Z,10.90
2023-03-28T23:11:29.071Z,10.81
2023-03-28T23:13:30.764Z,10.88
2023-03-28T23:15:32.744Z,10.84
2023-03-28T23:17:34.493Z,10.93
2023-03-28T23:19:36.233Z,11.06
2023-03-28T23:21:38.077Z,11.10
2023-03-28T23:23:41.070Z,11.14
2023-03-28T23:25:44.702Z,11.24
2023-03-28T23:27:46.720Z,11.28
2023-03-28T23:29:48.446Z,11.18
2023-03-28T23:31:50.817Z,11.32
2023-03-28T23:33:52.489Z,11.38
2023-03-28T23:35:54.321Z,11.19
2023-03-28T23:37:56.062Z,11.30
2023-03-28T23:39:57.843Z,11.38
2023-03-28T23:41:59.680Z,11.39
2023-03-28T23:44:01.752Z,11.38
2023-03-28T23:46:04.509Z,11.46
2023-03-28T23:48:09.389Z,11.48
2023-03-28T23:50:11.842Z,11.46
2023-03-28T23:52:13.898Z,11.40
2023-03-28T23:54:18.144Z,11.35
2023-03-28T23:56:19.782Z,11.45
2023-03-28T23:58:21.643Z,11.42
